sensor_id;sensor_type;location;lat;lon;timestamp;pressure;altitude;pressure_sealevel;temperature;humidity
45793;BME280;31495;42.740;22.908;2023-04-07T00:00:58;92792.53;;;-0.03;71.50
45793;BME280;31495;42.740;22.908;2023-04-07T00:01:57;92819.84;;;0.30;71.31
45793;BME280;31495;42.740;22.908;2023-04-07T00:02:57;92806.09;;;0.14;70.87
45793;BME280;31495;42.740;22.908;2023-04-07T00:03:57;92818.03;;;0.14;71.46
45793;BME280;31495;42.740;22.908;2023-04-07T00:04:56;92824.56;;;0.16;71.57
45793;BME280;31495;42.740;22.908;2023-04-07T00:05:56;92790.19;;;0.12;71.29
45793;BME280;31495;42.740;22.908;2023-04-07T00:06:56;92814.75;;;0.30;71.34
45793;BME280;31495;42.740;22.908;2023-04-07T00:07:55;92776.97;;;0.01;71.03
45793;BME280;31495;42.740;22.908;2023-04-07T00:08:55;92794.97;;;0.15;70.88
45793;BME280;31495;42.740;22.908;2023-04-07T00:09:54;92814.09;;;0.28;71.19
45793;BME280;31495;42.740;22.908;2023-04-07T00:10:54;92820.63;;;0.30;71.05
45793;BME280;31495;42.740;22.908;2023-04-07T00:11:54;92820.78;;;0.29;71.12
45793;BME280;31495;42.740;22.908;2023-04-07T00:12:54;92826.66;;;0.29;71.27
45793;BME280;31495;42.740;22.908;2023-04-07T00:13:54;92818.06;;;0.30;70.89
45793;BME280;31495;42.740;22.908;2023-04-07T00:14:53;92810.13;;;0.25;71.04
45793;BME280;31495;42.740;22.908;2023-04-07T00:15:53;92806.75;;;0.16;71.23
45793;BME280;31495;42.740;22.908;2023-04-07T00:16:52;92804.00;;;0.10;71.51
45793;BME280;31495;42.740;22.908;2023-04-07T00:17:52;92827.16;;;0.25;71.62
45793;BME280;31495;42.740;22.908;2023-04-07T00:18:51;92824.75;;;0.23;71.46
45793;BME280;31495;42.740;22.908;2023-04-07T00:19:50;92820.28;;;0.17;71.79
45793;BME280;31495;42.740;22.908;2023-04-07T00:20:50;92830.78;;;0.22;71.76
45793;BME280;31495;42.740;22.908;2023-04-07T00:21:49;92801.63;;;0.00;71.74
45793;BME280;31495;42.740;22.908;2023-04-07T00:22:49;92814.56;;;0.15;71.83
45793;BME280;31495;42.740;22.908;2023-04-07T00:23:48;92801.81;;;0.07;72.05
45793;BME280;31495;42.740;22.908;2023-04-07T00:24:47;92772.03;;;-0.09;71.67
45793;BME280;31495;42.740;22.908;2023-04-07T00:25:47;92799.09;;;0.08;71.97
45793;BME280;31495;42.740;22.908;2023-04-07T00:26:47;92793.34;;;0.06;71.59
45793;BME280;31495;42.740;22.908;2023-04-07T00:27:46;92820.59;;;0.22;72.08
45793;BME280;31495;42.740;22.908;2023-04-07T00:28:46;92811.19;;;0.14;71.80
45793;BME280;31495;42.740;22.908;2023-04-07T00:29:45;92819.53;;;0.33;71.96
45793;BME280;31495;42.740;22.908;2023-04-07T00:30:45;92768.56;;;0.00;71.89
45793;BME280;31495;42.740;22.908;2023-04-07T00:31:44;92778.75;;;0.08;72.19
45793;BME280;31495;42.740;22.908;2023-04-07T00:32:44;92807.56;;;0.17;72.08
45793;BME280;31495;42.740;22.908;2023-04-07T00:33:43;92806.75;;;0.16;71.88
45793;BME280;31495;42.740;22.908;2023-04-07T00:34:43;92820.44;;;0.24;71.89
45793;BME280;31495;42.740;22.908;2023-04-07T00:35:42;92766.47;;;-0.05;71.27
45793;BME280;31495;42.740;22.908;2023-04-07T00:36:41;92787.50;;;0.14;71.00
45793;BME280;31495;42.740;22.908;2023-04-07T00:37:41;92810.75;;;0.27;70.78
45793;BME280;31495;42.740;22.908;2023-04-07T00:38:40;92819.84;;;0.30;70.70
45793;BME280;31495;42.740;22.908;2023-04-07T00:39:40;92815.69;;;0.29;70.41
45793;BME280;31495;42.740;22.908;2023-04-07T00:40:39;92812.34;;;0.28;70.29
45793;BME280;31495;42.740;22.908;2023-04-07T00:41:39;92798.19;;;0.26;69.92
45793;BME280;31495;42.740;22.908;2023-04-07T00:42:38;92817.16;;;0.40;69.94
45793;BME280;31495;42.740;22.908;2023-04-07T00:43:37;92812.38;;;0.36;70.09
45793;BME280;31495;42.740;22.908;2023-04-07T00:44:37;92768.38;;;0.02;70.12
45793;BME280;31495;42.740;22.908;2023-04-07T00:45:36;92806.81;;;0.33;69.90
45793;BME280;31495;42.740;22.908;2023-04-07T00:46:36;92807.44;;;0.35;69.96
45793;BME280;31495;42.740;22.908;2023-04-07T00:47:36;92786.56;;;0.15;69.84
45793;BME280;31495;42.740;22.908;2023-04-07T00:48:36;92784.31;;;0.12;70.10
45793;BME280;31495;42.740;22.908;2023-04-07T00:49:36;92804.88;;;0.27;69.71
45793;BME280;31495;42.740;22.908;2023-04-07T00:50:36;92811.91;;;0.33;69.60
45793;BME280;31495;42.740;22.908;2023-04-07T00:51:35;92805.81;;;0.26;69.53
45793;BME280;31495;42.740;22.908;2023-04-07T00:52:35;92785.41;;;0.09;69.57
45793;BME280;31495;42.740;22.908;2023-04-07T00:53:35;92772.03;;;-0.01;69.66
45793;BME280;31495;42.740;22.908;2023-04-07T00:54:35;92809.81;;;0.28;69.47
45793;BME280;31495;42.740;22.908;2023-04-07T00:55:34;92801.22;;;0.29;69.25
45793;BME280;31495;42.740;22.908;2023-04-07T00:56:34;92803.44;;;0.24;69.58
45793;BME280;31495;42.740;22.908;2023-04-07T00:57:33;92792.44;;;0.15;69.57
45793;BME280;31495;42.740;22.908;2023-04-07T00:58:33;92761.09;;;-0.02;69.34
45793;BME280;31495;42.740;22.908;2023-04-07T00:59:32;92814.41;;;0.16;69.41
45793;BME280;31495;42.740;22.908;2023-04-07T01:00:37;92803.56;;;0.14;69.67
45793;BME280;31495;42.740;22.908;2023-04-07T01:01:47;92806.06;;;0.06;69.81
45793;BME280;31495;42.740;22.908;2023-04-07T01:03:00;92810.53;;;0.04;70.05
45793;BME280;31495;42.740;22.908;2023-04-07T01:04:06;92795.56;;;0.01;69.83
45793;BME280;31495;42.740;22.908;2023-04-07T01:05:45;92803.53;;;0.06;69.95
45793;BME280;31495;42.740;22.908;2023-04-07T01:06:50;92807.38;;;0.10;70.35
45793;BME280;31495;42.740;22.908;2023-04-07T01:09:18;92784.75;;;-0.09;70.54
45793;BME280;31495;42.740;22.908;2023-04-07T01:10:26;92754.47;;;-0.29;70.39
45793;BME280;31495;42.740;22.908;2023-04-07T01:13:59;92816.56;;;0.03;71.21
45793;BME280;31495;42.740;22.908;2023-04-07T01:15:07;92810.06;;;0.09;70.88
45793;BME280;31495;42.740;22.908;2023-04-07T01:16:29;92787.59;;;-0.04;71.12
45793;BME280;31495;42.740;22.908;2023-04-07T01:17:31;92814.41;;;0.16;71.07
45793;BME280;31495;42.740;22.908;2023-04-07T01:18:34;92812.00;;;0.15;70.98
45793;BME280;31495;42.740;22.908;2023-04-07T01:20:00;92813.44;;;0.26;70.68
45793;BME280;31495;42.740;22.908;2023-04-07T01:21:06;92810.28;;;0.24;70.60
45793;BME280;31495;42.740;22.908;2023-04-07T01:22:14;92801.84;;;0.15;70.40
45793;BME280;31495;42.740;22.908;2023-04-07T01:26:23;92808.84;;;0.29;68.50
45793;BME280;31495;42.740;22.908;2023-04-07T01:27:46;92776.69;;;0.12;67.18
45793;BME280;31495;42.740;22.908;2023-04-07T01:30:31;92817.13;;;0.23;67.34
45793;BME280;31495;42.740;22.908;2023-04-07T01:31:32;92810.44;;;0.22;67.49
45793;BME280;31495;42.740;22.908;2023-04-07T01:32:34;92751.50;;;-0.16;67.51
45793;BME280;31495;42.740;22.908;2023-04-07T01:33:36;92772.19;;;-0.03;67.70
45793;BME280;31495;42.740;22.908;2023-04-07T01:34:36;92801.03;;;0.23;67.82
45793;BME280;31495;42.740;22.908;2023-04-07T01:35:37;92778.91;;;0.07;67.88
45793;BME280;31495;42.740;22.908;2023-04-07T01:36:38;92790.66;;;0.08;68.11
45793;BME280;31495;42.740;22.908;2023-04-07T01:37:39;92804.84;;;0.18;68.29
45793;BME280;31495;42.740;22.908;2023-04-07T01:38:39;92812.34;;;0.20;68.12
45793;BME280;31495;42.740;22.908;2023-04-07T01:39:40;92791.31;;;0.18;68.13
45793;BME280;31495;42.740;22.908;2023-04-07T01:40:40;92795.94;;;0.23;68.24
45793;BME280;31495;42.740;22.908;2023-04-07T01:41:40;92794.03;;;0.16;68.53
45793;BME280;31495;42.740;22.908;2023-04-07T01:42:41;92799.94;;;0.25;68.58
45793;BME280;31495;42.740;22.908;2023-04-07T01:43:41;92796.41;;;0.18;68.75
45793;BME280;31495;42.740;22.908;2023-04-07T01:44:42;92800.56;;;0.19;68.76
45793;BME280;31495;42.740;22.908;2023-04-07T01:45:41;92772.53;;;0.11;68.76
45793;BME280;31495;42.740;22.908;2023-04-07T01:46:42;92802.19;;;0.28;68.47
45793;BME280;31495;42.740;22.908;2023-04-07T01:47:42;92786.22;;;0.18;68.69
45793;BME280;31495;42.740;22.908;2023-04-07T01:48:42;92801.50;;;0.26;68.75
45793;BME280;31495;42.740;22.908;2023-04-07T01:49:42;92807.13;;;0.30;68.92
45793;BME280;31495;42.740;22.908;2023-04-07T01:50:43;92779.28;;;0.28;68.66
45793;BME280;31495;42.740;22.908;2023-04-07T01:51:45;92783.56;;;0.28;68.70
45793;BME280;31495;42.740;22.908;2023-04-07T01:52:48;92797.59;;;0.40;68.58
45793;BME280;31495;42.740;22.908;2023-04-07T01:53:49;92794.72;;;0.43;68.43
45793;BME280;31495;42.740;22.908;2023-04-07T01:54:48;92755.22;;;0.23;68.08
45793;BME280;31495;42.740;22.908;2023-04-07T01:55:48;92730.72;;;0.05;67.88
45793;BME280;31495;42.740;22.908;2023-04-07T01:56:48;92795.38;;;0.45;68.05
45793;BME280;31495;42.740;22.908;2023-04-07T01:57:47;92795.03;;;0.40;67.93
45793;BME280;31495;42.740;22.908;2023-04-07T01:58:46;92733.59;;;0.02;67.91
45793;BME280;31495;42.740;22.908;2023-04-07T01:59:46;92774.97;;;0.29;67.88
45793;BME280;31495;42.740;22.908;2023-04-07T02:00:46;92800.44;;;0.45;67.82
45793;BME280;31495;42.740;22.908;2023-04-07T02:01:45;92777.38;;;0.39;67.80
45793;BME280;31495;42.740;22.908;2023-04-07T02:02:46;92745.03;;;0.14;67.85
45793;BME280;31495;42.740;22.908;2023-04-07T02:05:04;92781.22;;;0.43;67.80
45793;BME280;31495;42.740;22.908;2023-04-07T02:06:08;92796.66;;;0.49;67.67
45793;BME280;31495;42.740;22.908;2023-04-07T02:07:18;92799.22;;;0.58;67.87
45793;BME280;31495;42.740;22.908;2023-04-07T02:08:20;92789.34;;;0.54;67.78
45793;BME280;31495;42.740;22.908;2023-04-07T02:09:24;92795.84;;;0.57;67.80
45793;BME280;31495;42.740;22.908;2023-04-07T02:10:27;92767.34;;;0.29;68.12
45793;BME280;31495;42.740;22.908;2023-04-07T02:11:28;92767.84;;;0.41;67.91
45793;BME280;31495;42.740;22.908;2023-04-07T02:12:31;92792.22;;;0.60;67.75
45793;BME280;31495;42.740;22.908;2023-04-07T02:13:33;92790.44;;;0.60;67.64
45793;BME280;31495;42.740;22.908;2023-04-07T02:14:35;92751.47;;;0.43;67.49
45793;BME280;31495;42.740;22.908;2023-04-07T02:15:35;92789.97;;;0.65;67.60
45793;BME280;31495;42.740;22.908;2023-04-07T02:16:36;92757.34;;;0.44;67.75
45793;BME280;31495;42.740;22.908;2023-04-07T02:17:38;92780.91;;;0.62;68.04
45793;BME280;31495;42.740;22.908;2023-04-07T02:18:39;92785.66;;;0.65;67.88
45793;BME280;31495;42.740;22.908;2023-04-07T02:19:40;92789.50;;;0.69;68.33
45793;BME280;31495;42.740;22.908;2023-04-07T02:20:42;92765.28;;;0.49;68.28
45793;BME280;31495;42.740;22.908;2023-04-07T02:21:43;92789.03;;;0.66;68.19
45793;BME280;31495;42.740;22.908;2023-04-07T02:22:44;92761.03;;;0.49;68.32
45793;BME280;31495;42.740;22.908;2023-04-07T02:23:45;92789.34;;;0.71;68.04
45793;BME280;31495;42.740;22.908;2023-04-07T02:24:45;92796.69;;;0.74;67.99
45793;BME280;31495;42.740;22.908;2023-04-07T02:25:44;92781.41;;;0.66;68.25
45793;BME280;31495;42.740;22.908;2023-04-07T02:26:44;92773.41;;;0.61;68.21
45793;BME280;31495;42.740;22.908;2023-04-07T02:27:44;92785.19;;;0.62;68.62
45793;BME280;31495;42.740;22.908;2023-04-07T02:28:44;92783.78;;;0.51;68.59
45793;BME280;31495;42.740;22.908;2023-04-07T02:29:43;92781.53;;;0.48;68.81
45793;BME280;31495;42.740;22.908;2023-04-07T02:30:42;92787.09;;;0.51;69.03
45793;BME280;31495;42.740;22.908;2023-04-07T02:31:42;92762.75;;;0.41;68.95
45793;BME280;31495;42.740;22.908;2023-04-07T02:32:41;92760.19;;;0.41;68.91
45793;BME280;31495;42.740;22.908;2023-04-07T02:33:41;92771.19;;;0.49;68.96
45793;BME280;31495;42.740;22.908;2023-04-07T02:34:40;92766.25;;;0.48;68.94
45793;BME280;31495;42.740;22.908;2023-04-07T02:35:40;92721.22;;;0.24;68.56
45793;BME280;31495;42.740;22.908;2023-04-07T02:36:40;92776.63;;;0.54;68.66
45793;BME280;31495;42.740;22.908;2023-04-07T02:37:39;92756.09;;;0.48;68.75
45793;BME280;31495;42.740;22.908;2023-04-07T02:38:39;92780.44;;;0.75;68.54
45793;BME280;31495;42.740;22.908;2023-04-07T02:39:39;92789.03;;;0.74;68.36
45793;BME280;31495;42.740;22.908;2023-04-07T02:40:38;92784.91;;;0.81;67.76
45793;BME280;31495;42.740;22.908;2023-04-07T02:41:38;92759.75;;;0.62;67.60
45793;BME280;31495;42.740;22.908;2023-04-07T02:42:38;92759.44;;;0.65;67.31
45793;BME280;31495;42.740;22.908;2023-04-07T02:43:38;92790.31;;;0.86;67.11
45793;BME280;31495;42.740;22.908;2023-04-07T02:44:37;92758.47;;;0.66;67.46
45793;BME280;31495;42.740;22.908;2023-04-07T02:45:37;92794.91;;;0.83;67.61
45793;BME280;31495;42.740;22.908;2023-04-07T02:46:36;92762.75;;;0.65;67.47
45793;BME280;31495;42.740;22.908;2023-04-07T02:47:37;92716.28;;;0.30;67.26
45793;BME280;31495;42.740;22.908;2023-04-07T02:48:36;92760.38;;;0.64;67.25
45793;BME280;31495;42.740;22.908;2023-04-07T02:49:36;92792.69;;;0.88;67.57
45793;BME280;31495;42.740;22.908;2023-04-07T02:50:35;92753.22;;;0.59;67.01
45793;BME280;31495;42.740;22.908;2023-04-07T02:51:35;92796.19;;;0.87;66.86
45793;BME280;31495;42.740;22.908;2023-04-07T02:52:34;92757.19;;;0.62;67.03
45793;BME280;31495;42.740;22.908;2023-04-07T02:53:34;92775.34;;;0.67;66.97
45793;BME280;31495;42.740;22.908;2023-04-07T02:54:34;92773.25;;;0.62;67.12
45793;BME280;31495;42.740;22.908;2023-04-07T02:55:33;92791.28;;;0.77;67.04
45793;BME280;31495;42.740;22.908;2023-04-07T02:56:32;92793.97;;;0.76;66.80
45793;BME280;31495;42.740;22.908;2023-04-07T02:57:32;92769.13;;;0.45;67.00
45793;BME280;31495;42.740;22.908;2023-04-07T02:58:31;92770.53;;;0.47;67.22
45793;BME280;31495;42.740;22.908;2023-04-07T02:59:31;92797.94;;;0.70;66.86
45793;BME280;31495;42.740;22.908;2023-04-07T03:00:30;92772.16;;;0.57;66.91
45793;BME280;31495;42.740;22.908;2023-04-07T03:01:30;92792.06;;;0.61;67.04
45793;BME280;31495;42.740;22.908;2023-04-07T03:02:29;92777.22;;;0.40;67.22
45793;BME280;31495;42.740;22.908;2023-04-07T03:03:28;92802.69;;;0.48;67.40
45793;BME280;31495;42.740;22.908;2023-04-07T03:04:28;92799.50;;;0.46;67.37
45793;BME280;31495;42.740;22.908;2023-04-07T03:05:28;92744.75;;;0.17;67.16
45793;BME280;31495;42.740;22.908;2023-04-07T03:06:27;92784.69;;;0.33;67.41
45793;BME280;31495;42.740;22.908;2023-04-07T03:07:26;92770.66;;;0.21;67.57
45793;BME280;31495;42.740;22.908;2023-04-07T03:08:26;92788.47;;;0.29;67.88
45793;BME280;31495;42.740;22.908;2023-04-07T03:09:25;92784.03;;;0.23;67.96
45793;BME280;31495;42.740;22.908;2023-04-07T03:10:25;92753.94;;;0.02;68.00
45793;BME280;31495;42.740;22.908;2023-04-07T03:11:25;92784.19;;;0.22;67.86
45793;BME280;31495;42.740;22.908;2023-04-07T03:12:25;92781.97;;;0.18;68.06
45793;BME280;31495;42.740;22.908;2023-04-07T03:13:25;92786.41;;;0.16;68.00
45793;BME280;31495;42.740;22.908;2023-04-07T03:14:24;92777.78;;;0.09;68.06
45793;BME280;31495;42.740;22.908;2023-04-07T03:15:24;92783.34;;;0.05;68.23
45793;BME280;31495;42.740;22.908;2023-04-07T03:16:23;92721.38;;;-0.45;68.22
45793;BME280;31495;42.740;22.908;2023-04-07T03:17:23;92790.31;;;-0.06;68.51
45793;BME280;31495;42.740;22.908;2023-04-07T03:18:22;92782.34;;;-0.11;68.34
45793;BME280;31495;42.740;22.908;2023-04-07T03:19:21;92772.13;;;-0.27;69.25
45793;BME280;31495;42.740;22.908;2023-04-07T03:20:21;92756.91;;;-0.53;70.34
45793;BME280;31495;42.740;22.908;2023-04-07T03:21:20;92756.13;;;-0.54;70.22
45793;BME280;31495;42.740;22.908;2023-04-07T03:22:20;92790.81;;;-0.37;70.86
45793;BME280;31495;42.740;22.908;2023-04-07T03:23:19;92788.28;;;-0.37;70.41
45793;BME280;31495;42.740;22.908;2023-04-07T03:24:19;92790.97;;;-0.38;71.09
45793;BME280;31495;42.740;22.908;2023-04-07T03:25:19;92762.03;;;-0.45;70.94
45793;BME280;31495;42.740;22.908;2023-04-07T03:26:18;92787.63;;;-0.39;70.73
45793;BME280;31495;42.740;22.908;2023-04-07T03:27:18;92785.53;;;-0.43;71.02
45793;BME280;31495;42.740;22.908;2023-04-07T03:28:18;92757.22;;;-0.57;70.92
45793;BME280;31495;42.740;22.908;2023-04-07T03:29:18;92787.78;;;-0.40;70.95
45793;BME280;31495;42.740;22.908;2023-04-07T03:30:17;92787.19;;;-0.34;70.89
45793;BME280;31495;42.740;22.908;2023-04-07T03:31:17;92789.25;;;-0.38;71.17
45793;BME280;31495;42.740;22.908;2023-04-07T03:32:17;92743.97;;;-0.68;71.36
45793;BME280;31495;42.740;22.908;2023-04-07T03:33:16;92793.66;;;-0.40;71.48
45793;BME280;31495;42.740;22.908;2023-04-07T03:34:16;92747.94;;;-0.66;71.53
45793;BME280;31495;42.740;22.908;2023-04-07T03:35:15;92764.19;;;-0.59;71.34
45793;BME280;31495;42.740;22.908;2023-04-07T03:36:15;92790.94;;;-0.46;71.49
45793;BME280;31495;42.740;22.908;2023-04-07T03:37:16;92773.88;;;-0.62;71.40
45793;BME280;31495;42.740;22.908;2023-04-07T03:38:15;92776.25;;;-0.61;71.57
45793;BME280;31495;42.740;22.908;2023-04-07T03:39:15;92804.63;;;-0.39;71.75
45793;BME280;31495;42.740;22.908;2023-04-07T03:40:14;92779.66;;;-0.44;71.44
45793;BME280;31495;42.740;22.908;2023-04-07T03:41:14;92794.81;;;-0.34;71.31
45793;BME280;31495;42.740;22.908;2023-04-07T03:42:14;92797.09;;;-0.23;71.62
45793;BME280;31495;42.740;22.908;2023-04-07T03:43:13;92803.28;;;-0.17;71.53
45793;BME280;31495;42.740;22.908;2023-04-07T03:44:14;92793.47;;;-0.12;71.17
45793;BME280;31495;42.740;22.908;2023-04-07T03:45:14;92806.16;;;-0.12;71.10
45793;BME280;31495;42.740;22.908;2023-04-07T03:46:14;92787.56;;;-0.21;71.05
45793;BME280;31495;42.740;22.908;2023-04-07T03:47:13;92803.63;;;-0.12;71.26
45793;BME280;31495;42.740;22.908;2023-04-07T03:48:13;92784.19;;;-0.29;71.43
45793;BME280;31495;42.740;22.908;2023-04-07T03:49:13;92728.97;;;-0.53;71.34
45793;BME280;31495;42.740;22.908;2023-04-07T03:50:12;92770.81;;;-0.31;71.36
45793;BME280;31495;42.740;22.908;2023-04-07T03:51:12;92777.53;;;-0.22;71.68
45793;BME280;31495;42.740;22.908;2023-04-07T03:52:11;92781.38;;;-0.18;71.50
45793;BME280;31495;42.740;22.908;2023-04-07T03:53:11;92791.56;;;-0.10;71.36
45793;BME280;31495;42.740;22.908;2023-04-07T03:54:13;92803.34;;;-0.01;71.47
45793;BME280;31495;42.740;22.908;2023-04-07T03:55:13;92673.88;;;-0.87;71.49
45793;BME280;31495;42.740;22.908;2023-04-07T03:56:13;92789.97;;;-0.11;71.34
45793;BME280;31495;42.740;22.908;2023-04-07T03:57:13;92768.44;;;-0.25;71.50
45793;BME280;31495;42.740;22.908;2023-04-07T03:58:12;92785.38;;;-0.07;71.05
45793;BME280;31495;42.740;22.908;2023-04-07T03:59:12;92797.47;;;-0.01;70.73
45793;BME280;31495;42.740;22.908;2023-04-07T04:00:12;92780.25;;;-0.15;70.44
45793;BME280;31495;42.740;22.908;2023-04-07T04:01:11;92801.56;;;-0.08;70.68
45793;BME280;31495;42.740;22.908;2023-04-07T04:02:11;92820.03;;;-0.06;70.90
45793;BME280;31495;42.740;22.908;2023-04-07T04:03:10;92767.31;;;-0.39;70.90
45793;BME280;31495;42.740;22.908;2023-04-07T04:04:10;92798.69;;;-0.13;70.96
45793;BME280;31495;42.740;22.908;2023-04-07T04:05:10;92791.19;;;-0.23;70.79
45793;BME280;31495;42.740;22.908;2023-04-07T04:06:10;92805.53;;;-0.14;71.21
45793;BME280;31495;42.740;22.908;2023-04-07T04:07:09;92801.53;;;-0.16;71.56
45793;BME280;31495;42.740;22.908;2023-04-07T04:08:09;92807.25;;;-0.23;71.81
45793;BME280;31495;42.740;22.908;2023-04-07T04:09:08;92804.00;;;-0.33;71.91
45793;BME280;31495;42.740;22.908;2023-04-07T04:10:08;92799.81;;;-0.50;72.27
45793;BME280;31495;42.740;22.908;2023-04-07T04:11:08;92804.44;;;-0.46;72.02
45793;BME280;31495;42.740;22.908;2023-04-07T04:12:08;92806.03;;;-0.45;71.85
45793;BME280;31495;42.740;22.908;2023-04-07T04:13:07;92802.53;;;-0.44;71.51
45793;BME280;31495;42.740;22.908;2023-04-07T04:14:07;92802.59;;;-0.35;71.38
45793;BME280;31495;42.740;22.908;2023-04-07T04:15:07;92775.50;;;-0.53;71.20
45793;BME280;31495;42.740;22.908;2023-04-07T04:16:06;92782.50;;;-0.47;71.46
45793;BME280;31495;42.740;22.908;2023-04-07T04:17:06;92799.22;;;-0.44;71.60
45793;BME280;31495;42.740;22.908;2023-04-07T04:18:05;92783.59;;;-0.49;71.36
45793;BME280;31495;42.740;22.908;2023-04-07T04:19:05;92748.41;;;-0.70;71.46
45793;BME280;31495;42.740;22.908;2023-04-07T04:20:05;92735.81;;;-0.80;71.19
45793;BME280;31495;42.740;22.908;2023-04-07T04:21:05;92803.81;;;-0.40;70.91
45793;BME280;31495;42.740;22.908;2023-04-07T04:22:05;92806.91;;;-0.28;70.36
45793;BME280;31495;42.740;22.908;2023-04-07T04:23:05;92806.56;;;-0.33;70.65
45793;BME280;31495;42.740;22.908;2023-04-07T04:24:05;92750.34;;;-0.64;70.43
45793;BME280;31495;42.740;22.908;2023-04-07T04:25:05;92795.94;;;-0.28;70.66
45793;BME280;31495;42.740;22.908;2023-04-07T04:26:04;92799.94;;;-0.26;70.50
45793;BME280;31495;42.740;22.908;2023-04-07T04:27:04;92813.81;;;-0.12;70.78
45793;BME280;31495;42.740;22.908;2023-04-07T04:28:04;92775.09;;;-0.32;70.88
45793;BME280;31495;42.740;22.908;2023-04-07T04:29:04;92789.47;;;-0.23;70.74
45793;BME280;31495;42.740;22.908;2023-04-07T04:30:05;92800.16;;;-0.11;70.94
45793;BME280;31495;42.740;22.908;2023-04-07T04:31:05;92783.44;;;-0.13;70.91
45793;BME280;31495;42.740;22.908;2023-04-07T04:32:04;92809.09;;;0.10;70.78
45793;BME280;31495;42.740;22.908;2023-04-07T04:33:04;92818.19;;;0.12;70.72
45793;BME280;31495;42.740;22.908;2023-04-07T04:34:03;92809.59;;;0.05;70.72
45793;BME280;31495;42.740;22.908;2023-04-07T04:35:03;92778.19;;;-0.12;70.56
45793;BME280;31495;42.740;22.908;2023-04-07T04:36:02;92816.94;;;0.16;70.57
45793;BME280;31495;42.740;22.908;2023-04-07T04:37:02;92816.44;;;0.21;70.24
45793;BME280;31495;42.740;22.908;2023-04-07T04:38:02;92815.06;;;0.27;70.24
45793;BME280;31495;42.740;22.908;2023-04-07T04:39:01;92786.56;;;0.15;69.94
45793;BME280;31495;42.740;22.908;2023-04-07T04:40:01;92812.53;;;0.35;69.98
45793;BME280;31495;42.740;22.908;2023-04-07T04:41:00;92799.31;;;0.23;70.20
45793;BME280;31495;42.740;22.908;2023-04-07T04:41:59;92819.03;;;0.38;70.04
45793;BME280;31495;42.740;22.908;2023-04-07T04:42:59;92794.38;;;0.22;69.92
45793;BME280;31495;42.740;22.908;2023-04-07T04:43:58;92816.50;;;0.46;69.16
45793;BME280;31495;42.740;22.908;2023-04-07T04:44:57;92788.00;;;0.26;68.74
45793;BME280;31495;42.740;22.908;2023-04-07T04:45:57;92810.94;;;0.42;69.43
45793;BME280;31495;42.740;22.908;2023-04-07T04:46:57;92816.53;;;0.54;68.71
45793;BME280;31495;42.740;22.908;2023-04-07T04:47:56;92822.75;;;0.51;68.64
45793;BME280;31495;42.740;22.908;2023-04-07T04:48:56;92819.22;;;0.44;68.87
45793;BME280;31495;42.740;22.908;2023-04-07T04:49:56;92773.19;;;0.13;69.15
45793;BME280;31495;42.740;22.908;2023-04-07T04:50:55;92828.16;;;0.48;68.97
45793;BME280;31495;42.740;22.908;2023-04-07T04:51:55;92803.59;;;0.31;68.67
45793;BME280;31495;42.740;22.908;2023-04-07T04:52:54;92804.72;;;0.28;68.50
45793;BME280;31495;42.740;22.908;2023-04-07T04:53:54;92798.16;;;0.17;68.31
45793;BME280;31495;42.740;22.908;2023-04-07T04:54:53;92795.16;;;0.22;67.96
45793;BME280;31495;42.740;22.908;2023-04-07T04:55:53;92781.94;;;0.10;67.35
45793;BME280;31495;42.740;22.908;2023-04-07T04:56:53;92831.94;;;0.44;67.44
45793;BME280;31495;42.740;22.908;2023-04-07T04:57:52;92817.47;;;0.36;67.42
45793;BME280;31495;42.740;22.908;2023-04-07T04:58:51;92791.69;;;0.23;67.49
45793;BME280;31495;42.740;22.908;2023-04-07T04:59:51;92786.75;;;0.30;66.75
45793;BME280;31495;42.740;22.908;2023-04-07T05:00:53;92822.59;;;0.53;66.69
45793;BME280;31495;42.740;22.908;2023-04-07T05:01:56;92780.53;;;0.24;66.48
45793;BME280;31495;42.740;22.908;2023-04-07T05:02:55;92833.56;;;0.62;66.48
45793;BME280;31495;42.740;22.908;2023-04-07T05:03:55;92832.63;;;0.63;66.60
45793;BME280;31495;42.740;22.908;2023-04-07T05:04:55;92832.31;;;0.66;66.67
45793;BME280;31495;42.740;22.908;2023-04-07T05:05:54;92780.06;;;0.37;66.78
45793;BME280;31495;42.740;22.908;2023-04-07T05:06:53;92818.31;;;0.70;67.14
45793;BME280;31495;42.740;22.908;2023-04-07T05:07:53;92789.97;;;0.48;67.42
45793;BME280;31495;42.740;22.908;2023-04-07T05:08:53;92837.91;;;0.78;67.80
45793;BME280;31495;42.740;22.908;2023-04-07T05:09:52;92844.25;;;0.90;66.97
45793;BME280;31495;42.740;22.908;2023-04-07T05:10:52;92801.59;;;0.67;67.02
45793;BME280;31495;42.740;22.908;2023-04-07T05:11:51;92848.09;;;0.94;66.72
45793;BME280;31495;42.740;22.908;2023-04-07T05:12:50;92817.06;;;0.82;66.32
45793;BME280;31495;42.740;22.908;2023-04-07T05:13:50;92836.78;;;0.97;66.24
45793;BME280;31495;42.740;22.908;2023-04-07T05:14:49;92833.13;;;0.99;66.02
45793;BME280;31495;42.740;22.908;2023-04-07T05:15:49;92852.88;;;1.14;66.16
45793;BME280;31495;42.740;22.908;2023-04-07T05:16:48;92842.22;;;1.18;66.13
45793;BME280;31495;42.740;22.908;2023-04-07T05:17:48;92842.69;;;1.22;65.61
45793;BME280;31495;42.740;22.908;2023-04-07T05:18:48;92829.78;;;1.15;65.94
45793;BME280;31495;42.740;22.908;2023-04-07T05:19:48;92852.88;;;1.30;65.25
45793;BME280;31495;42.740;22.908;2023-04-07T05:20:48;92785.38;;;0.93;64.89
45793;BME280;31495;42.740;22.908;2023-04-07T05:21:48;92836.97;;;1.28;64.83
45793;BME280;31495;42.740;22.908;2023-04-07T05:22:47;92844.59;;;1.36;64.82
45793;BME280;31495;42.740;22.908;2023-04-07T05:23:47;92830.41;;;1.34;64.33
45793;BME280;31495;42.740;22.908;2023-04-07T05:24:46;92850.31;;;1.55;64.27
45793;BME280;31495;42.740;22.908;2023-04-07T05:25:46;92849.00;;;1.59;64.11
45793;BME280;31495;42.740;22.908;2023-04-07T05:26:45;92839.81;;;1.50;63.44
45793;BME280;31495;42.740;22.908;2023-04-07T05:27:44;92837.09;;;1.51;63.00
45793;BME280;31495;42.740;22.908;2023-04-07T05:28:44;92818.94;;;1.38;62.18
45793;BME280;31495;42.740;22.908;2023-04-07T05:29:44;92856.97;;;1.64;62.23